createdAt,value
2017-06-08T00:02:03.998Z,67.4
2017-06-08T00:07:03.853Z,67.3
2017-06-08T00:12:03.657Z,66.8
2017-06-08T00:17:03.380Z,66.9
2017-06-08T00:22:03.949Z,66.8
2017-06-08T00:27:03.262Z,67.0
2017-06-08T00:32:03.593Z,67.1
2017-06-08T00:37:03.810Z,67.1
2017-06-08T00:42:02.963Z,67.0
2017-06-08T00:47:03.428Z,66.6
2017-06-08T00:52:03.811Z,66.6
2017-06-08T00:57:03.490Z,67.0
2017-06-08T01:02:03.170Z,66.7
2017-06-08T01:07:03.858Z,67.0
2017-06-08T01:12:03.339Z,66.8
2017-06-08T01:17:03.989Z,66.9
2017-06-08T01:22:03.737Z,66.8
2017-06-08T01:27:03.384Z,66.6
2017-06-08T01:32:04.104Z,66.6
2017-06-08T01:37:03.525Z,66.7
2017-06-08T01:42:02.909Z,66.7
2017-06-08T01:47:03.403Z,66.8
2017-06-08T01:52:03.136Z,66.8
2017-06-08T01:57:03.722Z,66.8
2017-06-08T02:02:03.458Z,67.2
2017-06-08T02:07:03.884Z,66.6
2017-06-08T02:12:03.518Z,66.6
2017-06-08T02:17:03.338Z,66.6
2017-06-08T02:22:03.487Z,66.7
2017-06-08T02:27:03.692Z,66.8
2017-06-08T02:32:03.342Z,67.0
2017-06-08T02:37:03.758Z,67.0
2017-06-08T02:42:03.785Z,67.0
2017-06-08T02:47:18.954Z,66.7
2017-06-08T02:52:03.809Z,66.6
2017-06-08T02:57:03.406Z,66.6
2017-06-08T03:02:23.734Z,67.1
2017-06-08T03:07:03.715Z,67.0
2017-06-08T03:12:03.170Z,67.2
2017-06-08T03:17:28.490Z,67.1
2017-06-08T03:22:03.733Z,67.3
2017-06-08T03:27:03.666Z,67.2
2017-06-08T03:32:22.319Z,67.3
2017-06-08T03:37:03.025Z,67.4
2017-06-08T03:42:03.128Z,67.4
2017-06-08T03:52:03.764Z,67.5
2017-06-08T03:57:03.916Z,67.5
2017-06-08T04:02:21.810Z,67.6
2017-06-08T04:07:03.525Z,67.6
2017-06-08T04:12:03.672Z,67.8
2017-06-08T04:17:23.772Z,67.8
2017-06-08T04:22:03.544Z,67.8
2017-06-08T04:27:03.793Z,67.6
2017-06-08T04:32:04.819Z,67.6
2017-06-08T04:37:03.093Z,68.1
2017-06-08T04:42:03.348Z,68.2
2017-06-08T04:47:24.297Z,68.3
2017-06-08T04:52:03.627Z,68.2
2017-06-08T04:57:03.077Z,68.4
2017-06-08T05:02:05.256Z,68.4
2017-06-08T05:07:03.377Z,67.5
2017-06-08T05:12:03.104Z,67.5
2017-06-08T05:17:24.841Z,67.9
2017-06-08T05:22:03.678Z,67.8
2017-06-08T05:27:03.207Z,67.8
2017-06-08T05:32:24.043Z,68.0
2017-06-08T05:37:03.459Z,68.4
2017-06-08T05:42:03.441Z,68.7
2017-06-08T05:47:28.906Z,68.7
2017-06-08T05:52:03.393Z,68.7
2017-06-08T05:57:03.593Z,68.7
2017-06-08T06:02:29.237Z,68.5
2017-06-08T06:07:03.142Z,68.5
2017-06-08T06:12:03.482Z,68.7
2017-06-08T06:17:23.820Z,68.2
2017-06-08T06:22:03.689Z,68.2
2017-06-08T06:27:04.052Z,68.1
2017-06-08T06:32:27.627Z,68.7
2017-06-08T06:37:03.979Z,69.4
2017-06-08T06:42:03.843Z,69.3
2017-06-08T06:47:28.258Z,69.5
2017-06-08T06:52:03.329Z,69.6
2017-06-08T06:57:03.361Z,69.5
2017-06-08T07:02:23.948Z,69.0
2017-06-08T07:07:03.850Z,68.7
2017-06-08T07:12:03.467Z,68.7
2017-06-08T07:17:25.099Z,68.7
2017-06-08T07:22:03.681Z,68.6
2017-06-08T07:27:03.197Z,68.8
2017-06-08T07:32:33.529Z,69.5
2017-06-08T07:37:03.638Z,69.5
2017-06-08T07:42:03.569Z,68.2
2017-06-08T07:47:24.294Z,68.5
2017-06-08T07:52:03.131Z,68.9
2017-06-08T07:57:03.144Z,69.5
2017-06-08T08:02:17.473Z,69.1
2017-06-08T08:07:03.912Z,69.2
2017-06-08T08:12:03.170Z,69.2
2017-06-08T08:17:28.440Z,70.0
2017-06-08T08:22:03.484Z,69.8
2017-06-08T08:27:03.645Z,69.8
2017-06-08T08:32:24.994Z,69.7
2017-06-08T08:37:03.230Z,70.0
2017-06-08T08:42:03.711Z,69.8
2017-06-08T08:47:24.098Z,69.7
2017-06-08T08:52:03.485Z,69.6
2017-06-08T08:57:03.221Z,69.6
2017-06-08T09:02:25.481Z,70.0
2017-06-08T09:07:03.616Z,70.1
2017-06-08T09:12:03.326Z,69.9
2017-06-08T09:17:29.277Z,71.0
2017-06-08T09:22:03.264Z,71.0
2017-06-08T09:27:03.844Z,70.0
2017-06-08T09:32:23.549Z,71.1
2017-06-08T09:37:03.066Z,71.0
2017-06-08T09:42:03.735Z,71.0
2017-06-08T09:47:25.040Z,71.7
2017-06-08T09:52:03.820Z,71.3
2017-06-08T09:57:03.545Z,71.3
2017-06-08T10:02:24.019Z,71.8
2017-06-08T10:07:03.437Z,71.6
2017-06-08T10:12:03.369Z,71.5
2017-06-08T10:22:03.251Z,71.3
2017-06-08T10:27:03.884Z,71.3
2017-06-08T10:32:28.395Z,72.3
2017-06-08T10:37:03.237Z,72.0
2017-06-08T10:42:03.538Z,71.6
2017-06-08T10:47:23.655Z,71.5
2017-06-08T10:52:03.477Z,71.4
2017-06-08T10:57:03.223Z,71.5
2017-06-08T11:02:28.311Z,72.9
2017-06-08T11:07:03.699Z,72.0
2017-06-08T11:12:03.093Z,71.8
2017-06-08T11:17:28.294Z,71.3
2017-06-08T11:22:03.734Z,71.3
2017-06-08T11:27:03.221Z,71.8
2017-06-08T11:32:26.920Z,72.7
2017-06-08T11:37:03.519Z,72.7
2017-06-08T11:42:03.814Z,72.2
2017-06-08T11:47:23.933Z,72.4
2017-06-08T11:52:03.426Z,72.7
2017-06-08T11:57:03.189Z,73.2
2017-06-08T12:02:29.904Z,72.5
2017-06-08T12:07:03.296Z,73.1
2017-06-08T12:12:03.114Z,73.4
2017-06-08T12:17:28.761Z,72.4
2017-06-08T12:22:03.635Z,71.7
2017-06-08T12:27:03.790Z,71.6
2017-06-08T12:32:28.164Z,72.0
2017-06-08T12:37:03.879Z,72.0
2017-06-08T12:42:03.220Z,73.4
2017-06-08T12:47:24.564Z,73.5
2017-06-08T12:52:03.286Z,73.5
2017-06-08T12:57:03.182Z,74.6
2017-06-08T13:02:23.935Z,74.6
2017-06-08T13:07:03.171Z,75.0
2017-06-08T13:12:03.904Z,76.9
2017-06-08T13:17:24.455Z,77.1
2017-06-08T13:22:03.506Z,77.1
2017-06-08T13:27:03.804Z,76.7
2017-06-08T13:32:23.509Z,76.5
2017-06-08T13:37:03.307Z,78.6
2017-06-08T13:42:03.649Z,78.3
2017-06-08T13:47:28.862Z,78.4
2017-06-08T13:52:03.329Z,78.2
2017-06-08T13:57:03.293Z,78.2
2017-06-08T14:02:23.756Z,77.7
2017-06-08T14:07:03.467Z,77.9
2017-06-08T14:12:03.828Z,78.8
2017-06-08T14:17:28.456Z,79.0
2017-06-08T14:22:03.694Z,79.0
2017-06-08T14:27:03.673Z,79.2
2017-06-08T14:32:23.563Z,79.2
2017-06-08T14:37:03.172Z,77.9
2017-06-08T14:42:03.827Z,74.3
2017-06-08T14:47:28.728Z,70.8
2017-06-08T14:52:03.185Z,65.8
2017-06-08T14:57:03.100Z,59.3
2017-06-08T15:02:23.952Z,59.3
2017-06-08T15:07:03.349Z,54.1
2017-06-08T15:12:03.734Z,54.1
2017-06-08T15:17:24.264Z,52.6
2017-06-08T15:22:03.194Z,48.9
2017-06-08T15:27:03.794Z,48.9
2017-06-08T15:32:21.604Z,48.9
2017-06-08T15:37:03.645Z,48.1
2017-06-08T15:42:03.274Z,47.5
2017-06-08T15:47:20.466Z,47.4
2017-06-08T15:52:03.179Z,47.2
2017-06-08T15:57:03.786Z,47.2
2017-06-08T16:07:03.726Z,46.1
2017-06-08T16:12:03.295Z,46.1
2017-06-08T16:22:03.740Z,46.1
2017-06-08T16:27:03.322Z,46.2
2017-06-08T16:32:17.663Z,46.3
2017-06-08T16:37:03.626Z,46.8
2017-06-08T16:42:03.214Z,46.3
2017-06-08T16:47:17.352Z,46.3
2017-06-08T16:52:03.700Z,46.7
2017-06-08T16:57:03.430Z,46.3
2017-06-08T17:02:16.480Z,45.7
2017-06-08T17:07:03.803Z,45.5
2017-06-08T17:12:03.505Z,45.5
2017-06-08T17:17:16.390Z,45.3
2017-06-08T17:22:03.917Z,45.3
2017-06-08T17:27:03.462Z,45.4
2017-06-08T17:32:15.106Z,45.4
2017-06-08T17:37:03.155Z,45.5
2017-06-08T17:42:03.610Z,44.6
2017-06-08T17:47:14.204Z,46.5
2017-06-08T17:52:03.520Z,47.5
2017-06-08T17:57:03.856Z,47.5
2017-06-08T18:02:13.286Z,49.9
2017-06-08T18:07:03.611Z,49.9
2017-06-08T18:12:03.229Z,52.2
2017-06-08T18:17:24.261Z,52.2
2017-06-08T18:22:03.562Z,57.6
2017-06-08T18:27:03.985Z,61.1
2017-06-08T18:32:24.100Z,63.9
2017-06-08T18:37:03.269Z,63.9
2017-06-08T18:42:03.720Z,64.3
2017-06-08T18:47:14.794Z,64.3
2017-06-08T18:52:03.714Z,64.1
2017-06-08T18:57:03.254Z,63.6
2017-06-08T19:02:15.379Z,64.2
2017-06-08T19:07:03.579Z,64.3
2017-06-08T19:12:03.432Z,64.3
2017-06-08T19:17:19.783Z,64.3
2017-06-08T19:22:03.778Z,64.7
2017-06-08T19:27:03.386Z,64.7
2017-06-08T19:32:26.874Z,64.8
2017-06-08T19:37:03.919Z,64.6
2017-06-08T19:42:03.365Z,64.6
2017-06-08T19:47:09.931Z,64.6
2017-06-08T19:52:03.596Z,64.6
2017-06-08T19:57:03.395Z,64.5
2017-06-08T20:02:20.282Z,64.3
2017-06-08T20:07:03.898Z,64.3
2017-06-08T20:12:03.553Z,64.1
2017-06-08T20:17:11.849Z,63.8
2017-06-08T20:22:03.417Z,63.6
2017-06-08T20:27:03.889Z,63.6
2017-06-08T20:32:06.865Z,63.6
2017-06-08T20:37:03.706Z,63.6
2017-06-08T20:42:03.173Z,63.7
2017-06-08T20:47:03.859Z,63.5
2017-06-08T20:52:03.236Z,63.4
2017-06-08T20:57:03.550Z,63.4
2017-06-08T21:02:03.092Z,63.2
2017-06-08T21:07:03.718Z,63.2
2017-06-08T21:12:03.382Z,63.2
2017-06-08T21:17:04.194Z,63.3
2017-06-08T21:22:03.342Z,63.1
2017-06-08T21:27:03.787Z,62.9
2017-06-08T21:32:03.272Z,62.8
2017-06-08T21:37:03.717Z,62.7
2017-06-08T21:42:03.143Z,62.6
2017-06-08T21:47:03.844Z,62.3
2017-06-08T21:52:03.030Z,62.3
2017-06-08T21:57:03.490Z,62.3
2017-06-08T22:02:03.386Z,62.3
2017-06-08T22:07:03.545Z,62.2
2017-06-08T22:12:03.644Z,62.0
2017-06-08T22:22:03.892Z,61.9
2017-06-08T22:27:03.334Z,61.9
2017-06-08T22:32:03.882Z,62.0
2017-06-08T22:37:03.292Z,62.0
2017-06-08T22:42:03.791Z,61.6
2017-06-08T22:47:03.686Z,61.6
2017-06-08T22:52:03.010Z,61.4
2017-06-08T22:57:03.590Z,61.4
2017-06-08T23:02:03.066Z,61.2
2017-06-08T23:07:03.337Z,61.2
2017-06-08T23:12:03.151Z,61.3
2017-06-08T23:17:03.857Z,61.0
2017-06-08T23:22:03.505Z,60.8
2017-06-08T23:27:03.301Z,61.0
2017-06-08T23:32:03.862Z,60.9
2017-06-08T23:37:03.203Z,60.6
2017-06-08T23:42:03.783Z,60.5
2017-06-08T23:47:03.500Z,60.5
2017-06-08T23:52:03.223Z,60.4
2017-06-08T23:57:03.781Z,60.4
